createdAt,value
2023-05-15T00:00:37.556Z,11.95
2023-05-15T00:03:04.777Z,11.80
2023-05-15T00:05:31.840Z,11.85
2023-05-15T00:07:58.762Z,11.93
2023-05-15T00:10:25.517Z,11.00
2023-05-15T00:15:18.869Z,10.52
2023-05-15T00:20:12.999Z,10.07
2023-05-15T00:22:39.868Z,9.98
2023-05-15T00:25:07.277Z,9.98
2023-05-15T00:27:34.129Z,9.75
2023-05-15T00:30:00.958Z,9.38
2023-05-15T00:34:54.395Z,8.25
2023-05-15T00:39:47.832Z,9.55
2023-05-15T00:44:44.743Z,9.15
2023-05-15T00:47:12.546Z,8.52
2023-05-15T00:49:40.964Z,10.02
2023-05-15T00:52:08.749Z,9.70
2023-05-15T00:54:35.813Z,9.18
2023-05-15T00:57:05.678Z,9.32
2023-05-15T00:59:33.405Z,10.35
2023-05-15T01:02:00.631Z,9.40
2023-05-15T01:04:27.839Z,10.45
2023-05-15T01:06:55.054Z,9.45
2023-05-15T01:09:25.411Z,10.35
2023-05-15T01:11:55.238Z,9.90
2023-05-15T01:14:22.091Z,9.80
2023-05-15T01:19:15.783Z,8.95
2023-05-15T01:22:22.121Z,9.70
2023-05-15T01:25:12.424Z,9.80
2023-05-15T01:27:47.278Z,10.23
2023-05-15T01:30:19.676Z,10.07
2023-05-15T01:33:21.018Z,10.50
2023-05-15T01:35:53.343Z,9.90
2023-05-15T01:38:35.858Z,10.63
2023-05-15T01:41:22.250Z,9.85
2023-05-15T01:43:55.602Z,9.88
2023-05-15T01:46:24.094Z,11.00
2023-05-15T01:48:52.197Z,9.32
2023-05-15T01:51:20.743Z,9.55
2023-05-15T01:53:49.383Z,10.73
2023-05-15T01:56:19.962Z,10.20
2023-05-15T01:58:48.311Z,10.95
2023-05-15T02:01:17.705Z,11.93
2023-05-15T02:03:46.227Z,10.00
2023-05-15T02:06:14.280Z,10.35
2023-05-15T02:08:42.921Z,10.23
2023-05-15T02:11:10.638Z,11.15
2023-05-15T02:13:38.337Z,10.10
2023-05-15T02:16:05.586Z,10.32
2023-05-15T02:18:32.532Z,10.27
2023-05-15T02:21:01.066Z,10.73
2023-05-15T02:23:27.871Z,10.90
2023-05-15T02:28:58.269Z,10.60
2023-05-15T02:31:49.504Z,9.50
2023-05-15T02:34:42.526Z,9.65
2023-05-15T02:37:14.224Z,9.23
2023-05-15T02:39:43.774Z,8.27
2023-05-15T02:42:12.734Z,8.07
2023-05-15T02:44:40.753Z,7.60
2023-05-15T02:47:08.319Z,8.05
2023-05-15T02:49:36.765Z,7.75
2023-05-15T02:52:03.704Z,7.97
2023-05-15T02:54:30.466Z,7.97
2023-05-15T02:59:23.946Z,8.13
2023-05-15T03:04:17.376Z,7.32
2023-05-15T03:09:10.758Z,7.28
2023-05-15T03:11:37.473Z,7.03
2023-05-15T03:16:30.971Z,6.63
2023-05-15T03:21:24.662Z,6.45
2023-05-15T03:23:51.387Z,5.88
2023-05-15T03:28:44.768Z,5.43
2023-05-15T03:31:11.521Z,5.72
2023-05-15T03:33:49.915Z,7.75
2023-05-15T03:36:16.706Z,6.85
2023-05-15T03:41:11.176Z,5.28
2023-05-15T03:46:05.748Z,4.65
2023-05-15T03:48:32.527Z,4.57
2023-05-15T03:53:26.130Z,3.63
2023-05-15T03:55:52.993Z,3.42
2023-05-15T03:58:19.772Z,3.22
2023-05-15T04:03:13.465Z,3.03
2023-05-15T04:05:40.532Z,3.20
2023-05-15T04:08:07.298Z,2.67
2023-05-15T04:13:00.717Z,1.95
2023-05-15T04:17:55.987Z,2.38
2023-05-15T04:20:24.473Z,2.30
2023-05-15T04:22:52.739Z,2.42
2023-05-15T04:25:20.390Z,2.00
2023-05-15T04:27:50.107Z,2.47
2023-05-15T04:30:17.102Z,2.40
2023-05-15T04:32:43.996Z,2.20
2023-05-15T04:35:12.534Z,2.25
2023-05-15T04:37:40.843Z,2.35
2023-05-15T04:40:08.971Z,2.50
2023-05-15T04:42:38.573Z,2.35
2023-05-15T04:45:06.998Z,2.15
2023-05-15T04:47:34.052Z,1.85
2023-05-15T04:50:00.953Z,2.50
2023-05-15T04:52:27.690Z,2.20
2023-05-15T04:54:55.920Z,2.13
2023-05-15T04:57:23.045Z,2.13
2023-05-15T04:59:50.102Z,2.20
2023-05-15T05:02:19.981Z,2.05
2023-05-15T05:04:46.748Z,2.50
2023-05-15T05:07:13.514Z,2.70
2023-05-15T05:12:08.182Z,2.72
2023-05-15T05:14:35.427Z,2.63
2023-05-15T05:17:02.221Z,3.25
2023-05-15T05:21:55.944Z,2.60
2023-05-15T05:24:22.654Z,2.67
2023-05-15T05:26:49.603Z,3.03
2023-05-15T05:29:16.366Z,2.75
2023-05-15T05:34:09.882Z,3.13
2023-05-15T05:39:04.778Z,3.13
2023-05-15T05:41:31.595Z,3.78
2023-05-15T05:46:26.281Z,3.60
2023-05-15T05:48:53.110Z,3.80
2023-05-15T05:53:46.535Z,4.80
2023-05-15T05:56:13.435Z,4.22
2023-05-15T05:58:40.273Z,4.03
2023-05-15T06:01:07.736Z,3.60
2023-05-15T06:03:34.947Z,3.95
2023-05-15T06:06:01.995Z,4.20
2023-05-15T06:08:29.648Z,4.45
2023-05-15T06:10:56.410Z,5.13
2023-05-15T06:15:50.886Z,4.90
2023-05-15T06:18:17.705Z,5.00
2023-05-15T06:23:11.091Z,4.80
2023-05-15T06:28:04.907Z,4.50
2023-05-15T06:30:31.789Z,4.35
2023-05-15T06:32:58.717Z,4.93
2023-05-15T06:35:25.511Z,4.40
2023-05-15T06:40:20.906Z,4.25
2023-05-15T06:42:47.736Z,4.00
2023-05-15T06:47:41.270Z,4.20
2023-05-15T06:50:08.526Z,3.90
2023-05-15T06:52:35.318Z,4.20
2023-05-15T06:57:28.791Z,3.90
2023-05-15T07:02:22.316Z,4.93
2023-05-15T07:04:49.164Z,5.07
2023-05-15T07:07:16.095Z,4.30
2023-05-15T07:09:43.002Z,5.60
2023-05-15T07:12:09.964Z,5.13
2023-05-15T07:14:36.749Z,4.50
2023-05-15T07:17:03.789Z,5.20
2023-05-15T07:19:30.823Z,5.50
2023-05-15T07:21:57.607Z,5.85
2023-05-15T07:29:24.211Z,5.80
2023-05-15T07:31:51.068Z,5.80
2023-05-15T07:34:17.961Z,5.85
2023-05-15T07:36:44.739Z,6.10
2023-05-15T07:39:11.667Z,6.68
2023-05-15T07:41:38.468Z,6.15
2023-05-15T07:44:06.020Z,6.60
2023-05-15T07:46:33.839Z,6.72
2023-05-15T07:49:00.874Z,6.90
2023-05-15T07:51:27.602Z,7.38
2023-05-15T07:53:54.356Z,7.95
2023-05-15T07:56:21.554Z,8.00
2023-05-15T07:58:48.680Z,8.30
2023-05-15T08:01:16.060Z,7.90
2023-05-15T08:03:43.027Z,7.25
2023-05-15T08:06:10.055Z,7.25
2023-05-15T08:08:36.769Z,6.28
2023-05-15T08:13:30.320Z,6.18
2023-05-15T08:15:57.254Z,5.47
2023-05-15T08:18:24.088Z,5.80
2023-05-15T08:20:52.164Z,5.50
2023-05-15T08:23:19.045Z,5.45
2023-05-15T08:25:46.247Z,7.13
2023-05-15T08:28:13.036Z,5.97
2023-05-15T08:30:39.832Z,5.80
2023-05-15T08:33:06.763Z,6.32
2023-05-15T08:35:33.916Z,6.72
2023-05-15T08:38:00.714Z,6.65
2023-05-15T08:43:03.570Z,6.97
2023-05-15T08:45:31.277Z,7.28
2023-05-15T08:48:00.602Z,7.07
2023-05-15T08:50:28.600Z,7.35
2023-05-15T08:52:58.408Z,7.40
2023-05-15T08:55:25.898Z,7.53
2023-05-15T08:57:54.439Z,8.18
2023-05-15T09:00:22.462Z,7.47
2023-05-15T09:02:49.424Z,6.65
2023-05-15T09:05:16.425Z,6.90
2023-05-15T09:07:45.504Z,6.53
2023-05-15T09:10:13.671Z,6.68
2023-05-15T09:12:44.754Z,6.05
2023-05-15T09:15:22.480Z,6.60
2023-05-15T09:17:50.348Z,6.95
2023-05-15T09:20:38.040Z,5.63
2023-05-15T09:23:21.599Z,6.03
2023-05-15T09:25:53.122Z,5.85
2023-05-15T09:28:31.152Z,5.35
2023-05-15T09:31:02.896Z,5.97
2023-05-15T09:33:38.054Z,5.95
2023-05-15T09:36:06.332Z,5.70
2023-05-15T09:38:33.977Z,5.55
2023-05-15T09:41:08.048Z,5.15
2023-05-15T09:43:39.122Z,5.38
2023-05-15T09:46:07.044Z,5.70
2023-05-15T09:48:35.001Z,5.00
2023-05-15T09:51:02.323Z,4.50
2023-05-15T09:53:30.486Z,4.72
2023-05-15T09:55:57.446Z,4.65
2023-05-15T09:58:24.251Z,4.60
2023-05-15T10:00:51.021Z,4.90
2023-05-15T10:03:20.122Z,5.68
2023-05-15T10:05:47.327Z,5.40
2023-05-15T10:08:15.656Z,5.53
2023-05-15T10:10:43.689Z,5.50
2023-05-15T10:13:11.951Z,6.38
2023-05-15T10:15:39.930Z,6.20
2023-05-15T10:18:07.807Z,5.95
2023-05-15T10:20:38.059Z,5.18
2023-05-15T10:23:06.619Z,5.38
2023-05-15T10:25:45.780Z,4.97
2023-05-15T10:28:13.652Z,20.17
2023-05-15T10:30:42.154Z,5.88
2023-05-15T10:33:09.418Z,5.40
2023-05-15T10:35:36.829Z,5.10
2023-05-15T10:38:05.803Z,4.63
2023-05-15T10:40:36.589Z,4.88
2023-05-15T10:43:04.886Z,4.18
2023-05-15T10:45:33.182Z,4.10
2023-05-15T10:48:01.141Z,4.85
2023-05-15T10:50:28.224Z,4.63
2023-05-15T10:52:55.963Z,5.00
2023-05-15T10:55:23.783Z,4.78
2023-05-15T10:57:50.810Z,5.65
2023-05-15T11:00:24.288Z,4.90
2023-05-15T11:02:56.882Z,4.28
2023-05-15T11:05:24.904Z,3.65
2023-05-15T11:08:13.619Z,4.05
2023-05-15T11:10:40.471Z,4.22
2023-05-15T11:13:07.264Z,3.58
2023-05-15T11:15:45.058Z,3.40
2023-05-15T11:18:12.367Z,3.63
2023-05-15T11:20:40.813Z,2.22
2023-05-15T11:23:07.879Z,3.50
2023-05-15T11:25:36.606Z,3.35
2023-05-15T11:28:04.694Z,3.20
2023-05-15T11:30:41.355Z,3.78
2023-05-15T11:33:11.179Z,4.20
2023-05-15T11:35:48.499Z,4.00
2023-05-15T11:38:20.210Z,2.70
2023-05-15T11:40:48.158Z,3.00
2023-05-15T11:43:28.384Z,3.38
2023-05-15T11:46:16.496Z,2.90
2023-05-15T11:48:50.652Z,4.30
2023-05-15T11:51:24.820Z,3.92
2023-05-15T11:53:56.318Z,3.90
2023-05-15T11:56:30.404Z,3.92
2023-05-15T11:58:58.985Z,3.47
2023-05-15T12:01:25.865Z,4.22
2023-05-15T12:03:54.335Z,3.10
2023-05-15T12:06:22.081Z,2.67
2023-05-15T12:08:52.931Z,2.95
2023-05-15T12:11:24.416Z,3.03
2023-05-15T12:13:55.108Z,3.47
2023-05-15T12:16:26.692Z,3.22
2023-05-15T12:18:54.297Z,3.35
2023-05-15T12:21:21.171Z,4.20
2023-05-15T12:24:06.883Z,4.05
2023-05-15T12:26:35.863Z,4.22
2023-05-15T12:29:03.832Z,3.00
2023-05-15T12:31:30.880Z,3.70
2023-05-15T12:33:57.772Z,3.95
2023-05-15T12:36:27.414Z,2.97
2023-05-15T12:38:54.207Z,3.20
2023-05-15T12:41:21.169Z,3.20
2023-05-15T12:43:48.586Z,2.80
2023-05-15T12:46:15.515Z,2.92
2023-05-15T12:48:42.406Z,2.90
2023-05-15T12:51:09.453Z,2.85
2023-05-15T12:53:39.336Z,2.70
2023-05-15T12:56:06.716Z,2.67
2023-05-15T12:58:33.945Z,2.47
2023-05-15T13:01:03.201Z,2.95
2023-05-15T13:03:30.621Z,2.47
2023-05-15T13:05:57.749Z,2.42
2023-05-15T13:08:24.625Z,2.72
2023-05-15T13:11:00.038Z,2.20
2023-05-15T13:13:52.890Z,2.47
2023-05-15T13:16:22.153Z,2.40
2023-05-15T13:18:49.065Z,2.58
2023-05-15T13:21:16.332Z,2.35
2023-05-15T13:23:43.183Z,2.13
2023-05-15T13:26:09.967Z,2.42
2023-05-15T13:28:36.674Z,2.30
2023-05-15T13:31:03.546Z,2.50
2023-05-15T13:33:30.791Z,2.30
2023-05-15T13:35:57.792Z,2.38
2023-05-15T13:38:24.635Z,2.42
2023-05-15T13:40:51.498Z,2.47
2023-05-15T13:43:18.315Z,1.95
2023-05-15T13:45:45.048Z,2.13
2023-05-15T13:48:11.894Z,2.58
2023-05-15T13:50:39.580Z,1.90
2023-05-15T13:53:06.350Z,2.45
2023-05-15T13:55:33.204Z,2.10
2023-05-15T13:58:01.089Z,2.13
2023-05-15T14:00:27.916Z,1.83
2023-05-15T14:02:54.885Z,2.45
2023-05-15T14:05:21.746Z,2.20
2023-05-15T14:07:48.482Z,1.90
2023-05-15T14:10:15.401Z,1.77
2023-05-15T14:12:43.416Z,2.50
2023-05-15T14:15:11.979Z,1.98
2023-05-15T14:17:39.668Z,1.80
2023-05-15T14:20:07.225Z,2.08
2023-05-15T14:22:34.162Z,2.00
2023-05-15T14:25:00.970Z,1.80
2023-05-15T14:27:27.940Z,1.70
2023-05-15T14:29:56.741Z,1.60
2023-05-15T14:32:24.438Z,1.48
2023-05-15T14:34:51.670Z,1.70
2023-05-15T14:37:19.596Z,1.75
2023-05-15T14:39:46.421Z,1.90
2023-05-15T14:42:13.241Z,1.80
2023-05-15T14:44:40.079Z,1.75
2023-05-15T14:47:12.665Z,1.67
2023-05-15T14:52:09.268Z,1.88
2023-05-15T14:54:36.545Z,2.92
2023-05-15T14:57:03.902Z,2.33
2023-05-15T14:59:31.094Z,1.90
2023-05-15T15:01:58.043Z,4.10
2023-05-15T15:04:26.655Z,1.80
2023-05-15T15:06:56.878Z,2.40
2023-05-15T15:09:25.351Z,1.70
2023-05-15T15:11:53.150Z,1.88
2023-05-15T15:14:20.084Z,2.20
2023-05-15T15:16:47.101Z,1.88
2023-05-15T15:19:15.143Z,1.70
2023-05-15T15:21:43.258Z,1.75
2023-05-15T15:24:10.031Z,1.60
2023-05-15T15:26:36.810Z,1.50
2023-05-15T15:29:03.552Z,2.03
2023-05-15T15:31:31.777Z,1.80
2023-05-15T15:33:58.931Z,1.67
2023-05-15T15:36:25.971Z,1.65
2023-05-15T15:38:52.807Z,1.35
2023-05-15T15:41:21.339Z,1.60
2023-05-15T15:43:48.374Z,2.17
2023-05-15T15:46:15.288Z,1.92
2023-05-15T15:48:42.140Z,1.80
2023-05-15T15:51:08.995Z,1.83
2023-05-15T15:53:35.844Z,2.30
2023-05-15T15:56:02.711Z,1.63
2023-05-15T15:58:29.872Z,3.53
2023-05-15T16:00:57.487Z,1.75
2023-05-15T16:03:24.856Z,1.90
2023-05-15T16:05:51.881Z,1.60
2023-05-15T16:08:18.787Z,1.75
2023-05-15T16:10:45.672Z,1.65
2023-05-15T16:13:12.452Z,2.00
2023-05-15T16:15:39.225Z,4.35
2023-05-15T16:18:06.144Z,1.95
2023-05-15T16:20:35.101Z,2.72
2023-05-15T16:23:02.467Z,2.10
2023-05-15T16:25:29.413Z,2.00
2023-05-15T16:27:56.400Z,2.00
2023-05-15T16:30:28.242Z,2.00
2023-05-15T16:33:01.162Z,2.25
2023-05-15T16:35:28.086Z,2.40
2023-05-15T16:37:55.268Z,2.20
2023-05-15T16:40:22.097Z,2.70
2023-05-15T16:42:48.809Z,2.75
2023-05-15T16:45:16.406Z,2.45
2023-05-15T16:47:43.210Z,2.15
2023-05-15T16:50:10.461Z,2.13
2023-05-15T16:52:38.836Z,2.20
2023-05-15T16:55:06.201Z,2.20
2023-05-15T16:57:32.929Z,1.90
2023-05-15T16:59:59.669Z,2.08
2023-05-15T17:02:26.541Z,4.57
2023-05-15T17:04:53.395Z,2.15
2023-05-15T17:07:20.601Z,2.20
2023-05-15T17:09:47.483Z,2.28
2023-05-15T17:12:14.270Z,2.83
2023-05-15T17:14:41.092Z,2.60
2023-05-15T17:17:07.913Z,2.92
2023-05-15T17:19:34.805Z,2.83
2023-05-15T17:22:01.716Z,2.80
2023-05-15T17:24:35.531Z,2.40
2023-05-15T17:27:09.346Z,2.38
2023-05-15T17:29:36.432Z,2.63
2023-05-15T17:32:04.202Z,2.10
2023-05-15T17:34:31.065Z,2.00
2023-05-15T17:36:57.851Z,2.05
2023-05-15T17:39:25.019Z,2.10
2023-05-15T17:41:51.719Z,1.98
2023-05-15T17:44:18.437Z,2.13
2023-05-15T17:46:45.428Z,2.10
2023-05-15T17:49:12.281Z,1.92
2023-05-15T17:51:39.038Z,2.08
2023-05-15T17:54:06.608Z,2.47
2023-05-15T17:56:33.370Z,2.53
2023-05-15T17:59:00.153Z,2.63
2023-05-15T18:01:27.040Z,2.63
2023-05-15T18:03:53.943Z,2.45
2023-05-15T18:06:20.824Z,2.40
2023-05-15T18:08:47.892Z,2.33
2023-05-15T18:11:22.585Z,2.00
2023-05-15T18:13:49.739Z,2.40
2023-05-15T18:16:17.943Z,2.20
2023-05-15T18:18:44.983Z,2.20
2023-05-15T18:21:11.736Z,2.13
2023-05-15T18:23:38.458Z,2.00
2023-05-15T18:26:05.294Z,1.92
2023-05-15T18:28:32.070Z,2.00
2023-05-15T18:30:59.363Z,2.13
2023-05-15T18:33:26.349Z,2.00
2023-05-15T18:35:53.550Z,2.13
2023-05-15T18:38:20.997Z,1.92
2023-05-15T18:40:48.430Z,1.92
2023-05-15T18:43:15.196Z,2.00
2023-05-15T18:45:41.922Z,1.88
2023-05-15T18:48:08.750Z,1.88
2023-05-15T18:50:36.305Z,1.63
2023-05-15T18:53:05.859Z,1.90
2023-05-15T18:55:32.709Z,2.13
2023-05-15T18:57:59.406Z,2.05
2023-05-15T19:00:37.339Z,2.40
2023-05-15T19:03:07.029Z,2.42
2023-05-15T19:05:34.331Z,2.75
2023-05-15T19:08:01.622Z,3.20
2023-05-15T19:10:29.627Z,3.03
2023-05-15T19:12:57.514Z,3.25
2023-05-15T19:15:25.007Z,2.90
2023-05-15T19:17:52.041Z,3.22
2023-05-15T19:20:19.082Z,2.58
2023-05-15T19:22:46.154Z,3.72
2023-05-15T19:25:13.055Z,3.38
2023-05-15T19:27:39.939Z,3.50
2023-05-15T19:30:07.773Z,3.15
2023-05-15T19:32:34.830Z,3.67
2023-05-15T19:35:02.030Z,2.83
2023-05-15T19:37:29.072Z,3.10
2023-05-15T19:39:57.175Z,2.88
2023-05-15T19:42:24.027Z,2.60
2023-05-15T19:44:50.820Z,2.67
2023-05-15T19:47:17.551Z,2.55
2023-05-15T19:49:44.274Z,2.40
2023-05-15T19:52:11.014Z,2.15
2023-05-15T19:54:37.945Z,2.30
2023-05-15T19:57:04.871Z,1.95
2023-05-15T19:59:31.650Z,1.58
2023-05-15T20:01:58.468Z,1.45
2023-05-15T20:04:25.949Z,1.70
2023-05-15T20:06:53.219Z,1.50
2023-05-15T20:09:20.030Z,1.98
2023-05-15T20:11:46.785Z,2.08
2023-05-15T20:14:14.971Z,1.80
2023-05-15T20:16:41.746Z,2.00
2023-05-15T20:19:10.978Z,2.00
2023-05-15T20:21:38.614Z,1.67
2023-05-15T20:24:06.032Z,1.90
2023-05-15T20:26:35.579Z,2.10
2023-05-15T20:29:03.835Z,1.30
2023-05-15T20:31:30.818Z,1.20
2023-05-15T20:33:57.795Z,1.10
2023-05-15T20:36:27.233Z,1.10
2023-05-15T20:38:55.006Z,1.17
2023-05-15T20:41:23.249Z,1.20
2023-05-15T20:43:50.277Z,1.20
2023-05-15T20:46:17.291Z,1.17
2023-05-15T20:48:44.227Z,1.60
2023-05-15T20:51:11.027Z,1.30
2023-05-15T20:53:37.855Z,1.40
2023-05-15T20:56:04.782Z,1.10
2023-05-15T20:58:31.748Z,1.02
2023-05-15T21:01:01.068Z,1.00
2023-05-15T21:03:28.981Z,1.00
2023-05-15T21:05:57.512Z,1.20
2023-05-15T21:08:24.476Z,1.02
2023-05-15T21:10:53.135Z,0.90
2023-05-15T21:13:19.949Z,1.23
2023-05-15T21:15:46.792Z,1.48
2023-05-15T21:18:13.860Z,1.73
2023-05-15T21:20:41.715Z,1.50
2023-05-15T21:23:08.528Z,1.65
2023-05-15T21:25:35.378Z,1.60
2023-05-15T21:28:02.098Z,1.70
2023-05-15T21:30:28.928Z,1.60
2023-05-15T21:32:55.849Z,1.63
2023-05-15T21:35:22.781Z,1.60
2023-05-15T21:37:49.501Z,1.63
2023-05-15T21:40:16.328Z,1.88
2023-05-15T21:42:43.478Z,1.60
2023-05-15T21:45:10.898Z,1.42
2023-05-15T21:47:37.808Z,1.40
2023-05-15T21:50:06.053Z,1.40
2023-05-15T21:52:32.984Z,1.33
2023-05-15T21:54:59.773Z,1.50
2023-05-15T21:57:26.566Z,1.50
2023-05-15T21:59:53.342Z,1.30
2023-05-15T22:02:20.426Z,1.55
2023-05-15T22:04:47.272Z,1.50
2023-05-15T22:07:14.930Z,1.10
2023-05-15T22:09:43.019Z,1.27
2023-05-15T22:12:10.149Z,1.20
2023-05-15T22:14:39.624Z,1.30
2023-05-15T22:17:12.091Z,1.67
2023-05-15T22:19:42.169Z,1.20
2023-05-15T22:22:12.728Z,1.25
2023-05-15T22:24:39.436Z,1.00
2023-05-15T22:27:06.154Z,1.60
2023-05-15T22:29:32.873Z,1.20
2023-05-15T22:31:59.831Z,0.90
2023-05-15T22:34:28.899Z,1.15
2023-05-15T22:36:56.522Z,1.10
2023-05-15T22:39:23.265Z,1.17
2023-05-15T22:41:50.558Z,0.80
2023-05-15T22:44:17.369Z,1.10
2023-05-15T22:46:44.123Z,1.30
2023-05-15T22:49:14.820Z,1.00
2023-05-15T22:51:41.754Z,1.20
2023-05-15T22:54:08.483Z,1.10
2023-05-15T22:56:35.482Z,1.17
2023-05-15T22:59:02.178Z,1.00
2023-05-15T23:01:31.537Z,1.10
2023-05-15T23:03:58.373Z,0.80
2023-05-15T23:06:25.390Z,0.85
2023-05-15T23:08:52.192Z,0.70
2023-05-15T23:11:18.905Z,0.60
2023-05-15T23:13:45.682Z,1.00
2023-05-15T23:16:12.513Z,0.80
2023-05-15T23:18:39.303Z,0.98
2023-05-15T23:21:06.092Z,0.80
2023-05-15T23:23:33.069Z,1.00
2023-05-15T23:25:59.861Z,0.90
2023-05-15T23:28:26.654Z,1.00
2023-05-15T23:30:54.522Z,0.80
2023-05-15T23:33:21.693Z,0.50
2023-05-15T23:35:48.380Z,0.50
2023-05-15T23:38:15.158Z,0.47
2023-05-15T23:40:41.923Z,0.70
2023-05-15T23:43:08.703Z,0.60
2023-05-15T23:45:35.668Z,0.50
2023-05-15T23:48:02.427Z,0.55
2023-05-15T23:50:29.323Z,0.60
2023-05-15T23:52:56.197Z,0.40
2023-05-15T23:55:22.941Z,0.40
2023-05-15T23:57:49.666Z,0.40
